CheckWX is a tool to help pilots better visualize weather data.  It is not intended as a substitute for an official pre-flight weather briefing.

14:17:53 UTC

KAUS METAR
Austin-Bergstrom International Airport
Austin, Texas, USA
Current

25 mins ago

KAUS 151353Z 02003KT 8SM FEW250 27/22 A3008 RMK AO2 SLP173 T02670217 $
Observed
Sep-15 @ 13:53 UTC
Wind
  • 020° at 3 KTS
Visibility
8 SM
Flight Rules
VFR
Cloud Levels
  • Few at 25,000' AGL
Temperature
27°C / 81°F
Dewpoint
22°C / 72°F
Heat Index
29°C / 85°F
Humidity
74%
Altimeter
30.08" Hg
Pressure
1018.62 hPa
Previous

1 hour ago

KAUS 151253Z 00000KT 8SM FEW250 21/19 A3007 RMK AO2 SLP171 T02110194 $
Observed
Sep-15 @ 12:53 UTC
Visibility
8 SM
Flight Rules
VFR
Cloud Levels
  • Few at 25,000' AGL
Temperature
21°C / 70°F
Dewpoint
19°C / 66°F
Humidity
88%
Altimeter
30.07" Hg
Pressure
1018.32 hPa
Previous

2 hours ago

KAUS 151153Z 00000KT 7SM FEW250 21/19 A3007 RMK AO2 SLP171 T02060189 10261 20200 53001 VISNO RWY17R $
Observed
Sep-15 @ 11:53 UTC
Visibility
7 SM
Flight Rules
VFR
Cloud Levels
  • Few at 25,000' AGL
Temperature
21°C / 70°F
Dewpoint
19°C / 66°F
Humidity
88%
Altimeter
30.07" Hg
Pressure
1018.32 hPa